createdAt,value
2022-10-06T00:02:54.404Z,20.38
2022-10-06T00:05:21.179Z,26.38
2022-10-06T00:10:13.341Z,19.20
2022-10-06T00:12:41.309Z,24.48
2022-10-06T00:15:08.629Z,22.35
2022-10-06T00:17:35.326Z,26.70
2022-10-06T00:20:01.953Z,19.10
2022-10-06T00:25:00.859Z,25.48
2022-10-06T00:27:32.977Z,21.15
2022-10-06T00:29:59.609Z,22.58
2022-10-06T00:32:26.236Z,20.45
2022-10-06T00:34:53.896Z,31.65
2022-10-06T00:39:46.105Z,23.08
2022-10-06T00:44:53.347Z,23.15
2022-10-06T00:47:22.336Z,18.27
2022-10-06T00:52:16.619Z,21.38
2022-10-06T00:54:43.355Z,24.50
2022-10-06T00:57:10.395Z,19.55
2022-10-06T00:59:37.451Z,19.98
2022-10-06T01:02:23.822Z,19.80
2022-10-06T01:04:52.410Z,20.88
2022-10-06T01:07:19.745Z,28.55
2022-10-06T01:09:46.544Z,27.55
2022-10-06T01:12:13.688Z,17.40
2022-10-06T01:14:40.984Z,25.98
2022-10-06T01:17:11.310Z,22.73
2022-10-06T01:19:47.545Z,24.55
2022-10-06T01:22:15.542Z,30.60
2022-10-06T01:24:43.827Z,27.50
2022-10-06T01:27:11.850Z,18.08
2022-10-06T01:29:39.059Z,25.52
2022-10-06T01:32:05.830Z,23.25
2022-10-06T01:34:32.594Z,20.25
2022-10-06T01:39:25.868Z,22.15
2022-10-06T01:41:53.316Z,21.65
2022-10-06T01:46:45.462Z,21.42
2022-10-06T01:49:12.804Z,22.50
2022-10-06T01:54:05.100Z,20.92
2022-10-06T01:56:31.831Z,22.73
2022-10-06T01:58:58.492Z,23.50
2022-10-06T02:01:25.561Z,22.35
2022-10-06T02:03:54.169Z,20.88
2022-10-06T02:06:21.143Z,22.77
2022-10-06T02:08:48.185Z,17.35
2022-10-06T02:11:15.032Z,28.38
2022-10-06T02:13:42.610Z,27.88
2022-10-06T02:21:02.021Z,18.50
2022-10-06T02:23:29.585Z,21.88
2022-10-06T02:26:03.612Z,19.35
2022-10-06T02:28:31.506Z,18.00
2022-10-06T02:31:02.529Z,27.45
2022-10-06T02:33:29.397Z,18.83
2022-10-06T02:35:56.440Z,19.98
2022-10-06T02:38:24.245Z,21.98
2022-10-06T02:40:51.371Z,27.17
2022-10-06T02:45:43.405Z,27.70
2022-10-06T02:48:12.173Z,23.95
2022-10-06T02:50:39.060Z,25.92
2022-10-06T02:53:08.635Z,22.30
2022-10-06T02:55:35.976Z,21.30
2022-10-06T02:58:03.657Z,21.30
2022-10-06T03:00:30.322Z,25.15
2022-10-06T03:02:59.288Z,24.67
2022-10-06T03:05:26.117Z,26.58
2022-10-06T03:07:53.059Z,23.05
2022-10-06T03:15:10.764Z,20.08
2022-10-06T03:20:04.392Z,25.95
2022-10-06T03:22:32.590Z,21.67
2022-10-06T03:24:59.642Z,22.17
2022-10-06T03:27:26.343Z,26.98
2022-10-06T03:29:57.393Z,28.77
2022-10-06T03:32:24.297Z,19.33
2022-10-06T03:34:53.360Z,20.02
2022-10-06T03:37:19.976Z,24.25
2022-10-06T03:39:46.602Z,27.67
2022-10-06T03:42:13.500Z,24.55
2022-10-06T03:44:40.222Z,23.00
2022-10-06T03:49:33.859Z,25.45
2022-10-06T03:52:00.604Z,29.65
2022-10-06T03:54:31.616Z,26.38
2022-10-06T03:56:58.266Z,28.10
2022-10-06T03:59:25.408Z,23.58
2022-10-06T04:01:58.874Z,23.92
2022-10-06T04:09:16.691Z,22.23
2022-10-06T04:11:48.291Z,20.40
2022-10-06T04:14:16.202Z,20.60
2022-10-06T04:19:15.356Z,24.50
2022-10-06T04:21:47.231Z,20.70
2022-10-06T04:24:18.748Z,19.05
2022-10-06T04:26:49.388Z,24.42
2022-10-06T04:29:16.322Z,32.38
2022-10-06T04:31:46.573Z,20.05
2022-10-06T04:34:22.029Z,22.58
2022-10-06T04:36:48.658Z,31.42
2022-10-06T04:39:18.357Z,21.95
2022-10-06T04:41:47.856Z,27.00
2022-10-06T04:44:19.767Z,25.70
2022-10-06T04:46:47.564Z,26.73
2022-10-06T04:49:20.055Z,37.75
2022-10-06T04:51:48.421Z,29.08
2022-10-06T04:54:15.231Z,24.52
2022-10-06T04:56:42.028Z,23.88
2022-10-06T04:59:09.247Z,26.45
2022-10-06T05:01:38.629Z,25.65
2022-10-06T05:09:12.845Z,25.05
2022-10-06T05:11:44.853Z,24.42
2022-10-06T05:14:14.117Z,27.08
2022-10-06T05:16:43.920Z,25.25
2022-10-06T05:19:11.616Z,27.25
2022-10-06T05:21:39.513Z,20.00
2022-10-06T05:24:08.024Z,29.33
2022-10-06T05:26:35.999Z,30.65
2022-10-06T05:29:05.475Z,24.33
2022-10-06T05:31:33.539Z,21.92
2022-10-06T05:34:02.892Z,32.92
2022-10-06T05:36:30.350Z,32.05
2022-10-06T05:38:57.851Z,23.02
2022-10-06T05:41:26.581Z,36.95
2022-10-06T05:43:54.327Z,23.38
2022-10-06T05:46:24.011Z,20.73
2022-10-06T05:48:56.661Z,28.73
2022-10-06T05:51:30.695Z,30.58
2022-10-06T05:53:59.424Z,19.73
2022-10-06T05:56:30.108Z,26.42
2022-10-06T05:58:57.584Z,30.17
2022-10-06T06:01:27.100Z,24.77
2022-10-06T06:04:02.713Z,26.17
2022-10-06T06:09:26.483Z,20.00
2022-10-06T06:11:55.505Z,26.75
2022-10-06T06:14:56.100Z,31.05
2022-10-06T06:17:26.140Z,27.13
2022-10-06T06:19:52.795Z,30.02
2022-10-06T06:24:44.847Z,23.63
2022-10-06T06:27:11.995Z,32.97
2022-10-06T06:32:05.986Z,26.48
2022-10-06T06:34:32.717Z,26.67
2022-10-06T06:39:34.955Z,20.03
2022-10-06T06:42:02.249Z,34.25
2022-10-06T06:44:37.529Z,26.13
2022-10-06T06:47:04.111Z,23.52
2022-10-06T06:49:30.944Z,26.70
2022-10-06T06:51:57.519Z,23.33
2022-10-06T06:56:58.132Z,22.67
2022-10-06T06:59:25.333Z,18.25
2022-10-06T07:06:57.209Z,18.58
2022-10-06T07:09:27.273Z,22.23
2022-10-06T07:12:00.750Z,21.40
2022-10-06T07:14:27.471Z,25.65
2022-10-06T07:17:13.203Z,19.48
2022-10-06T07:19:47.584Z,22.33
2022-10-06T07:27:53.575Z,20.42
2022-10-06T07:30:26.489Z,19.55
2022-10-06T07:35:20.431Z,20.05
2022-10-06T07:37:49.352Z,21.67
2022-10-06T07:40:16.980Z,15.13
2022-10-06T07:42:52.339Z,23.55
2022-10-06T07:45:41.879Z,21.90
2022-10-06T07:48:23.552Z,21.17
2022-10-06T07:53:28.039Z,18.60
2022-10-06T07:56:07.763Z,21.42
2022-10-06T07:58:39.604Z,18.48
2022-10-06T08:01:07.288Z,19.83
2022-10-06T08:03:34.282Z,17.67
2022-10-06T08:06:02.423Z,18.92
2022-10-06T08:11:01.486Z,20.63
2022-10-06T08:13:28.619Z,16.85
2022-10-06T08:18:44.329Z,19.35
2022-10-06T08:23:39.281Z,12.93
2022-10-06T08:26:06.357Z,20.20
2022-10-06T08:31:03.087Z,20.58
2022-10-06T08:33:29.744Z,17.17
2022-10-06T08:36:01.823Z,24.33
2022-10-06T08:38:29.041Z,21.23
2022-10-06T08:43:25.017Z,13.55
2022-10-06T08:48:30.153Z,18.45
2022-10-06T08:51:15.414Z,21.20
2022-10-06T08:53:47.170Z,20.55
2022-10-06T08:56:35.199Z,19.55
2022-10-06T08:59:04.406Z,17.67
2022-10-06T09:01:51.539Z,24.20
2022-10-06T09:04:38.489Z,20.88
2022-10-06T09:10:01.869Z,19.58
2022-10-06T09:15:15.698Z,14.00
2022-10-06T09:20:40.021Z,20.23
2022-10-06T09:23:11.986Z,16.98
2022-10-06T09:25:38.661Z,23.77
2022-10-06T09:28:10.905Z,16.25
2022-10-06T09:33:04.719Z,19.48
2022-10-06T09:35:32.399Z,17.60
2022-10-06T09:43:01.277Z,21.88
2022-10-06T09:45:29.209Z,20.75
2022-10-06T09:48:11.063Z,22.35
2022-10-06T09:50:37.684Z,18.50
2022-10-06T09:53:16.317Z,18.40
2022-10-06T09:55:44.699Z,14.80
2022-10-06T10:00:56.864Z,15.02
2022-10-06T10:03:26.185Z,23.23
2022-10-06T10:05:55.014Z,14.95
2022-10-06T10:08:26.267Z,18.25
2022-10-06T10:11:08.305Z,14.57
2022-10-06T10:13:43.962Z,16.95
2022-10-06T10:18:46.356Z,13.63
2022-10-06T10:21:23.500Z,17.13
2022-10-06T10:23:58.020Z,18.20
2022-10-06T10:29:14.239Z,15.63
2022-10-06T10:31:41.015Z,12.52
2022-10-06T10:36:50.867Z,19.70
2022-10-06T10:39:29.419Z,8.50
2022-10-06T10:41:57.093Z,12.75
2022-10-06T10:44:28.002Z,11.80
2022-10-06T10:47:00.716Z,18.13
2022-10-06T10:49:27.605Z,9.20
2022-10-06T10:52:02.219Z,15.38
2022-10-06T10:54:34.843Z,16.55
2022-10-06T10:57:01.599Z,15.82
2022-10-06T11:02:03.682Z,13.57
2022-10-06T11:04:30.785Z,12.02
2022-10-06T11:07:00.282Z,15.35
2022-10-06T11:09:36.081Z,15.98
2022-10-06T11:12:21.519Z,11.82
2022-10-06T11:14:53.687Z,10.95
2022-10-06T11:17:23.116Z,17.25
2022-10-06T11:22:31.480Z,13.48
2022-10-06T11:30:26.593Z,9.88
2022-10-06T11:33:02.159Z,11.02
2022-10-06T11:35:37.317Z,9.20
2022-10-06T11:38:07.147Z,13.35
2022-10-06T11:40:53.985Z,9.93
2022-10-06T11:43:29.217Z,12.68
2022-10-06T11:46:15.862Z,8.00
2022-10-06T11:51:24.592Z,13.90
2022-10-06T11:53:51.727Z,14.85
2022-10-06T11:56:18.340Z,10.13
2022-10-06T11:58:50.704Z,13.48
2022-10-06T12:01:32.726Z,11.27
2022-10-06T12:04:05.604Z,13.20
2022-10-06T12:06:47.622Z,15.75
2022-10-06T12:09:32.533Z,10.10
2022-10-06T12:12:00.493Z,12.35
2022-10-06T12:17:36.112Z,11.68
2022-10-06T12:20:12.090Z,13.15
2022-10-06T12:28:06.300Z,9.43
2022-10-06T12:30:42.179Z,13.10
2022-10-06T12:33:16.882Z,6.75
2022-10-06T12:35:44.900Z,8.43
2022-10-06T12:45:58.712Z,8.57
2022-10-06T12:48:36.251Z,12.63
2022-10-06T12:51:21.093Z,12.70
2022-10-06T12:53:50.671Z,9.45
2022-10-06T12:58:54.357Z,9.73
2022-10-06T13:01:22.681Z,8.80
2022-10-06T13:03:50.945Z,9.32
2022-10-06T13:06:23.478Z,13.38
2022-10-06T13:14:08.183Z,8.38
2022-10-06T13:16:39.597Z,16.80
2022-10-06T13:19:15.292Z,9.68
2022-10-06T13:21:42.364Z,14.75
2022-10-06T13:24:14.091Z,10.93
2022-10-06T13:31:51.897Z,14.15
2022-10-06T13:34:23.302Z,10.82
2022-10-06T13:36:51.358Z,11.38
2022-10-06T13:39:20.001Z,11.00
2022-10-06T13:57:04.901Z,11.27
2022-10-06T13:59:33.464Z,9.77
2022-10-06T14:07:05.589Z,10.23
2022-10-06T14:12:04.134Z,12.77
2022-10-06T14:14:31.559Z,11.25
2022-10-06T14:16:58.679Z,11.43
2022-10-06T14:19:28.302Z,16.35
2022-10-06T14:21:55.496Z,11.32
2022-10-06T14:24:28.722Z,10.82
2022-10-06T14:27:00.924Z,10.18
2022-10-06T14:29:27.803Z,12.52
2022-10-06T14:34:21.076Z,11.10
2022-10-06T14:36:51.662Z,9.50
2022-10-06T14:39:18.871Z,14.85
2022-10-06T14:41:46.108Z,7.47
2022-10-06T14:44:15.198Z,13.48
2022-10-06T14:51:37.312Z,10.02
2022-10-06T14:56:32.803Z,11.50
2022-10-06T14:59:01.102Z,9.38
2022-10-06T15:03:55.754Z,11.20
2022-10-06T15:06:41.585Z,13.75
2022-10-06T15:09:08.898Z,11.93
2022-10-06T15:11:36.319Z,11.95
2022-10-06T15:14:03.874Z,7.60
2022-10-06T15:16:31.744Z,12.38
2022-10-06T15:18:59.437Z,14.10
2022-10-06T15:24:00.144Z,11.32
2022-10-06T15:29:12.058Z,11.20
2022-10-06T15:31:43.653Z,7.88
2022-10-06T15:36:39.350Z,15.25
2022-10-06T15:44:06.346Z,14.80
2022-10-06T15:53:58.642Z,8.73
2022-10-06T15:56:26.766Z,8.02
2022-10-06T15:58:53.887Z,8.60
2022-10-06T16:01:31.607Z,13.45
2022-10-06T16:04:01.081Z,15.60
2022-10-06T16:06:51.588Z,14.68
2022-10-06T16:09:21.550Z,9.98
2022-10-06T16:11:49.984Z,10.32
2022-10-06T16:14:17.580Z,9.35
2022-10-06T16:16:45.997Z,10.23
2022-10-06T16:19:13.626Z,12.65
2022-10-06T16:21:42.441Z,13.45
2022-10-06T16:24:09.954Z,11.05
2022-10-06T16:26:36.899Z,10.02
2022-10-06T16:33:55.551Z,15.07
2022-10-06T16:38:52.220Z,10.32
2022-10-06T16:41:19.777Z,10.07
2022-10-06T16:43:48.751Z,14.45
2022-10-06T16:46:17.271Z,10.45
2022-10-06T16:48:45.747Z,11.40
2022-10-06T16:53:43.926Z,14.15
2022-10-06T16:56:16.261Z,10.07
2022-10-06T17:15:58.428Z,10.38
2022-10-06T17:20:56.722Z,11.95
2022-10-06T17:23:23.844Z,15.45
2022-10-06T17:26:05.265Z,13.57
2022-10-06T17:28:32.352Z,13.23
2022-10-06T17:30:59.813Z,14.63
2022-10-06T17:33:28.073Z,12.80
2022-10-06T17:35:55.061Z,16.70
2022-10-06T17:38:22.028Z,11.65
2022-10-06T17:45:40.217Z,11.90
2022-10-06T17:50:33.412Z,11.75
2022-10-06T17:53:00.358Z,12.90
2022-10-06T17:57:53.889Z,14.88
2022-10-06T18:00:32.086Z,20.52
2022-10-06T18:03:00.424Z,13.02
2022-10-06T18:05:32.813Z,15.80
2022-10-06T18:08:01.074Z,13.45
2022-10-06T18:10:46.689Z,17.27
2022-10-06T18:13:13.561Z,16.27
2022-10-06T18:15:40.836Z,15.45
2022-10-06T18:18:07.926Z,14.90
2022-10-06T18:25:32.200Z,16.85
2022-10-06T18:27:59.273Z,13.40
2022-10-06T18:30:29.382Z,13.20
2022-10-06T18:38:09.950Z,18.67
2022-10-06T18:40:36.992Z,15.40
2022-10-06T18:48:32.407Z,18.50
2022-10-06T18:51:00.196Z,22.20
2022-10-06T18:53:27.451Z,17.92
2022-10-06T18:58:20.502Z,17.50
2022-10-06T19:00:49.145Z,19.10
2022-10-06T19:03:16.209Z,29.77
2022-10-06T19:05:51.313Z,27.30
2022-10-06T19:08:18.101Z,21.75
2022-10-06T19:11:05.011Z,21.58
2022-10-06T19:21:07.282Z,26.75
2022-10-06T19:23:37.329Z,16.67
2022-10-06T19:28:31.740Z,18.95
2022-10-06T19:31:03.440Z,25.05
2022-10-06T19:33:31.298Z,16.65
2022-10-06T19:36:00.696Z,23.13
2022-10-06T19:38:28.686Z,22.80
2022-10-06T19:46:06.589Z,21.52
2022-10-06T19:51:00.262Z,19.17
2022-10-06T19:53:27.343Z,13.07
2022-10-06T19:56:00.686Z,31.23
2022-10-06T19:58:28.273Z,19.42
2022-10-06T20:00:57.989Z,25.90
2022-10-06T20:03:25.699Z,16.27
2022-10-06T20:05:53.546Z,18.17
2022-10-06T20:08:22.950Z,18.25
2022-10-06T20:10:49.928Z,15.50
2022-10-06T20:13:21.888Z,19.52
2022-10-06T20:18:18.740Z,13.75
2022-10-06T20:20:56.554Z,23.75
2022-10-06T20:23:24.807Z,16.98
2022-10-06T20:25:53.235Z,13.35
2022-10-06T20:28:20.306Z,17.40
2022-10-06T20:31:11.863Z,20.60
2022-10-06T20:38:48.736Z,21.42
2022-10-06T20:41:16.340Z,25.02
2022-10-06T20:43:43.518Z,27.02
2022-10-06T20:46:10.655Z,17.77
2022-10-06T20:48:37.619Z,27.25
2022-10-06T21:01:02.567Z,18.23
2022-10-06T21:03:29.593Z,22.80
2022-10-06T21:10:55.394Z,22.85
2022-10-06T21:15:49.069Z,24.50
2022-10-06T21:18:16.978Z,24.05
2022-10-06T21:20:45.318Z,22.13
2022-10-06T21:23:13.307Z,20.00
2022-10-06T21:25:39.900Z,17.63
2022-10-06T21:28:06.606Z,15.68
2022-10-06T21:30:34.519Z,22.08
2022-10-06T21:33:01.202Z,18.88
2022-10-06T21:35:27.819Z,28.67
2022-10-06T21:37:54.442Z,12.88
2022-10-06T21:45:11.881Z,25.52
2022-10-06T21:54:55.453Z,10.32
2022-10-06T21:57:22.065Z,15.30
2022-10-06T21:59:48.630Z,10.85
2022-10-06T22:04:41.815Z,9.38
2022-10-06T22:07:08.432Z,11.50
2022-10-06T22:09:35.013Z,13.75
2022-10-06T22:12:01.705Z,13.75
2022-10-06T22:14:28.295Z,17.50
2022-10-06T22:16:54.914Z,15.70
2022-10-06T22:19:21.615Z,14.50
2022-10-06T22:21:48.528Z,27.50
2022-10-06T22:24:16.392Z,16.85
2022-10-06T22:29:10.764Z,16.85
2022-10-06T22:31:38.431Z,19.38
2022-10-06T22:34:05.598Z,15.20
2022-10-06T22:36:33.640Z,17.15
2022-10-06T22:39:00.585Z,21.70
2022-10-06T22:41:27.143Z,15.52
2022-10-06T22:43:57.489Z,13.60
2022-10-06T22:46:24.855Z,14.20
2022-10-06T22:48:51.772Z,15.52
2022-10-06T22:51:18.510Z,18.90
2022-10-06T22:53:45.269Z,14.48
2022-10-06T22:56:11.917Z,15.73
2022-10-06T22:58:39.693Z,17.30
2022-10-06T23:01:13.717Z,15.80
2022-10-06T23:03:40.849Z,17.35
2022-10-06T23:06:08.425Z,17.20
2022-10-06T23:08:35.552Z,15.00
2022-10-06T23:11:06.625Z,16.75
2022-10-06T23:13:33.270Z,13.13
2022-10-06T23:18:29.942Z,16.95
2022-10-06T23:21:10.289Z,17.58
2022-10-06T23:23:37.219Z,12.85
2022-10-06T23:26:07.749Z,15.73
2022-10-06T23:33:25.180Z,11.98
2022-10-06T23:50:33.761Z,13.55
2022-10-06T23:53:00.366Z,14.73
2022-10-06T23:55:26.947Z,15.73
